aviador You're here:

LFPB Decoded Metar

PARIS LE BOURGET in FRANCE
Report Time2018-06-17 23:30:00
UTC Time2018-06-17 23:37:27
Flight Rules vfr VFR
Wind230° at 07 kt
W.Decomp.*RWY 21: 6.5 kt HW 2.5 kt RCW
RWY 25: 6.6 kt HW 2.3 kt LCW
RWY 27: 5.4 kt HW 4.4 kt LCW
W.Rank230° ranks 7
Current wind is below 230° avg. (8.5)
Visibility9999 m
Phenomena:N/A
Clouds:Overcast 038 Hf
Expected CloudBase > 3,200 ft AGL from Temp-Dew spread
Ceiling3,800 ft
Temp19°C (ISA +4)
Dew Point11°C (60% RH)
AAT16.8°C
QNH1021 hPa
Density Alt640 ft
Elevation213 ft
Report Wrong Elevation
Raw Report
METAR LFPB 172330Z AUTO 23007KT 190V270 9999 OVC038 19/11 Q1021
NOSIG=

Extra information for LFPB:More info

Metar Taf Metar & Taf Last 4 Metars F.Rules Stats Wind Profile Meteogram Temp Stats Airport Information Weather charts Add Link Nearby VenuesMetar ALERT Operation Metar Decoded Social comments